createdAt,value
2023-05-10T00:02:49.422Z,100745.25
2023-05-10T00:05:51.959Z,100770.59
2023-05-10T00:08:54.420Z,100731.91
2023-05-10T00:11:59.345Z,100780.38
2023-05-10T00:15:01.831Z,100760.16
2023-05-10T00:18:05.301Z,100788.50
2023-05-10T00:21:07.737Z,100783.63
2023-05-10T00:24:10.261Z,100778.72
2023-05-10T00:27:12.776Z,100767.88
2023-05-10T00:30:16.248Z,100781.50
2023-05-10T00:33:19.328Z,100753.41
2023-05-10T00:36:22.171Z,100781.50
2023-05-10T00:39:24.752Z,100785.88
2023-05-10T00:42:27.116Z,100780.75
2023-05-10T00:45:34.460Z,100785.09
2023-05-10T00:48:37.309Z,100753.78
2023-05-10T00:51:40.087Z,100773.28
2023-05-10T00:54:42.896Z,100780.19
2023-05-10T00:57:45.582Z,100780.97
2023-05-10T01:00:49.460Z,100779.06
2023-05-10T01:03:52.228Z,100772.06
2023-05-10T01:06:54.759Z,100736.25
2023-05-10T01:09:57.824Z,100715.84
2023-05-10T01:13:00.981Z,100751.78
2023-05-10T01:16:04.377Z,100757.06
2023-05-10T01:19:13.896Z,100769.03
2023-05-10T01:22:41.059Z,100738.31
2023-05-10T01:26:34.911Z,100769.22
2023-05-10T01:29:51.494Z,100767.41
2023-05-10T01:33:19.385Z,100760.50
2023-05-10T01:37:03.817Z,100761.50
2023-05-10T01:40:14.382Z,100765.94
2023-05-10T01:43:24.151Z,100725.34
2023-05-10T01:46:38.043Z,100739.63
2023-05-10T01:49:48.655Z,100743.97
2023-05-10T01:52:56.485Z,100745.06
2023-05-10T01:56:01.428Z,100733.53
2023-05-10T01:59:08.077Z,100750.69
2023-05-10T02:02:13.216Z,100728.81
2023-05-10T02:05:17.201Z,100716.03
2023-05-10T02:08:21.975Z,100723.78
2023-05-10T02:11:25.891Z,100717.00
2023-05-10T02:14:29.970Z,100711.97
2023-05-10T02:17:33.801Z,100734.03
2023-05-10T02:20:38.027Z,100716.13
2023-05-10T02:23:41.075Z,100729.75
2023-05-10T02:26:45.258Z,100679.84
2023-05-10T02:29:48.306Z,100702.03
2023-05-10T02:32:53.417Z,100726.78
2023-05-10T02:35:57.046Z,100728.63
2023-05-10T02:39:03.082Z,100703.38
2023-05-10T02:42:07.455Z,100726.03
2023-05-10T02:45:14.283Z,100730.03
2023-05-10T02:48:18.715Z,100731.53
2023-05-10T02:51:25.869Z,100727.31
2023-05-10T02:54:32.824Z,100734.25
2023-05-10T02:57:38.332Z,100709.03
2023-05-10T03:00:40.905Z,100726.31
2023-05-10T03:03:43.709Z,100719.91
2023-05-10T03:06:46.677Z,100749.03
2023-05-10T03:09:50.461Z,100752.50
2023-05-10T03:13:13.926Z,100719.50
2023-05-10T03:16:20.495Z,100761.31
2023-05-10T03:19:40.886Z,100728.22
2023-05-10T03:22:48.241Z,100755.41
2023-05-10T03:25:51.776Z,100748.41
2023-05-10T03:28:55.444Z,100755.97
2023-05-10T03:32:01.192Z,100721.22
2023-05-10T03:35:10.095Z,100756.16
2023-05-10T03:38:14.135Z,100723.72
2023-05-10T03:41:16.586Z,100730.41
2023-05-10T03:44:19.125Z,100742.94
2023-05-10T03:47:21.523Z,100716.44
2023-05-10T03:50:24.401Z,100741.69
2023-05-10T03:53:27.907Z,100746.84
2023-05-10T03:56:31.100Z,100713.19
2023-05-10T03:59:33.893Z,100723.56
2023-05-10T04:02:36.457Z,100748.56
2023-05-10T04:05:39.131Z,100739.50
2023-05-10T04:08:42.217Z,100749.28
2023-05-10T04:11:44.588Z,100715.72
2023-05-10T04:14:46.974Z,100723.00
2023-05-10T04:17:49.532Z,100742.97
2023-05-10T04:20:51.983Z,100761.31
2023-05-10T04:23:54.421Z,100729.34
2023-05-10T04:26:57.904Z,100760.34
2023-05-10T04:30:00.542Z,100727.03
2023-05-10T04:33:02.991Z,100740.38
2023-05-10T04:36:06.082Z,100734.34
2023-05-10T04:39:08.555Z,100751.03
2023-05-10T04:42:11.122Z,100724.41
2023-05-10T04:45:15.589Z,100726.03
2023-05-10T04:48:17.961Z,100723.16
2023-05-10T04:51:21.504Z,100724.06
2023-05-10T04:54:23.941Z,100742.53
2023-05-10T04:57:26.392Z,100692.06
2023-05-10T05:00:28.821Z,100742.47
2023-05-10T05:03:31.252Z,100741.44
2023-05-10T05:06:34.070Z,100746.19
2023-05-10T05:09:36.603Z,100717.00
2023-05-10T05:12:39.088Z,100749.97
2023-05-10T05:15:41.528Z,100742.13
2023-05-10T05:18:44.112Z,100719.78
2023-05-10T05:21:46.738Z,100721.50
2023-05-10T05:24:49.139Z,100742.00
2023-05-10T05:27:51.610Z,100737.41
2023-05-10T05:30:54.106Z,100723.44
2023-05-10T05:33:56.767Z,100728.31
2023-05-10T05:36:59.159Z,100721.34
2023-05-10T05:40:02.775Z,100726.78
2023-05-10T05:43:05.197Z,100754.06
2023-05-10T05:46:07.572Z,100707.97
2023-05-10T05:49:10.028Z,100728.66
2023-05-10T05:52:12.668Z,100763.06
2023-05-10T05:55:15.311Z,100753.50
2023-05-10T05:58:18.005Z,100747.69
2023-05-10T06:01:20.644Z,100776.13
2023-05-10T06:04:23.258Z,100767.75
2023-05-10T06:07:26.414Z,100781.44
2023-05-10T06:10:28.938Z,100767.38
2023-05-10T06:13:33.698Z,100763.19
2023-05-10T06:16:36.342Z,100774.47
2023-05-10T06:19:38.857Z,100790.19
2023-05-10T06:22:41.271Z,100788.84
2023-05-10T06:25:43.756Z,100773.53
2023-05-10T06:28:46.209Z,100778.00
2023-05-10T06:31:49.172Z,100724.00
2023-05-10T06:34:51.951Z,100769.59
2023-05-10T06:37:54.349Z,100789.19
2023-05-10T06:40:56.801Z,100798.13
2023-05-10T06:43:59.293Z,100784.06
2023-05-10T06:47:01.692Z,100787.81
2023-05-10T06:50:04.284Z,100767.72
2023-05-10T06:53:06.738Z,100797.97
2023-05-10T06:56:29.088Z,100790.91
2023-05-10T06:59:31.553Z,100764.31
2023-05-10T07:02:34.168Z,100783.09
2023-05-10T07:05:36.987Z,100806.22
2023-05-10T07:08:39.397Z,100796.59
2023-05-10T07:11:41.807Z,100787.50
2023-05-10T07:14:44.161Z,100780.69
2023-05-10T07:17:46.735Z,100798.34
2023-05-10T07:20:49.172Z,100776.78
2023-05-10T07:23:51.614Z,100781.41
2023-05-10T07:26:53.978Z,100787.91
2023-05-10T07:29:57.579Z,100786.47
2023-05-10T07:33:00.322Z,100807.19
2023-05-10T07:36:02.767Z,100780.50
2023-05-10T07:39:05.169Z,100793.31
2023-05-10T07:42:07.526Z,100803.88
2023-05-10T07:45:10.415Z,100799.41
2023-05-10T07:48:12.773Z,100799.09
2023-05-10T07:51:15.134Z,100797.63
2023-05-10T07:54:17.550Z,100782.81
2023-05-10T07:57:20.800Z,100799.75
2023-05-10T08:00:23.260Z,100779.81
2023-05-10T08:03:25.675Z,100798.06
2023-05-10T08:06:29.315Z,100802.28
2023-05-10T08:09:31.689Z,100780.66
2023-05-10T08:12:34.041Z,100799.78
2023-05-10T08:15:36.423Z,100782.84
2023-05-10T08:18:39.979Z,100775.31
2023-05-10T08:21:43.409Z,100801.84
2023-05-10T08:24:46.198Z,100790.56
2023-05-10T08:27:48.581Z,100773.69
2023-05-10T08:30:54.066Z,100799.41
2023-05-10T08:33:56.675Z,100803.84
2023-05-10T08:36:59.056Z,100805.53
2023-05-10T08:40:01.546Z,100800.47
2023-05-10T08:43:08.154Z,100800.72
2023-05-10T08:46:11.631Z,100786.41
2023-05-10T08:49:21.214Z,100800.38
2023-05-10T08:52:27.604Z,100795.94
2023-05-10T08:55:30.452Z,100773.22
2023-05-10T08:58:33.016Z,100795.28
2023-05-10T09:01:37.701Z,100785.91
2023-05-10T09:04:40.207Z,100763.03
2023-05-10T09:07:43.095Z,100760.50
2023-05-10T09:10:48.190Z,100796.19
2023-05-10T09:13:53.239Z,100782.66
2023-05-10T09:16:56.453Z,100791.03
2023-05-10T09:20:00.566Z,100786.72
2023-05-10T09:23:03.103Z,100762.97
2023-05-10T09:26:06.434Z,100782.34
2023-05-10T09:29:09.468Z,100745.44
2023-05-10T09:32:13.859Z,100785.03
2023-05-10T09:35:20.295Z,100778.13
2023-05-10T09:38:22.678Z,100786.72
2023-05-10T09:41:26.013Z,100758.13
2023-05-10T09:44:28.530Z,100765.06
2023-05-10T09:47:33.582Z,100753.91
2023-05-10T09:50:35.971Z,100782.34
2023-05-10T09:53:38.534Z,100762.03
2023-05-10T09:56:41.711Z,100741.41
2023-05-10T09:59:44.503Z,100742.81
2023-05-10T10:02:49.075Z,100741.63
2023-05-10T10:05:52.297Z,100734.84
2023-05-10T10:08:56.758Z,100741.94
2023-05-10T10:12:00.761Z,100720.03
2023-05-10T10:15:03.307Z,100743.19
2023-05-10T10:18:06.578Z,100740.66
2023-05-10T10:21:09.761Z,100729.31
2023-05-10T10:24:12.105Z,100731.41
2023-05-10T10:27:20.420Z,100722.66
2023-05-10T10:30:31.117Z,100699.38
2023-05-10T10:33:48.576Z,100720.88
2023-05-10T10:36:50.965Z,100715.94
2023-05-10T10:39:55.769Z,100696.78
2023-05-10T10:42:59.074Z,100721.78
2023-05-10T10:46:22.892Z,100702.22
2023-05-10T10:49:25.878Z,100713.13
2023-05-10T10:52:35.956Z,100703.25
2023-05-10T10:55:49.178Z,100673.97
2023-05-10T10:58:54.835Z,100676.06
2023-05-10T11:01:57.598Z,100685.03
2023-05-10T11:05:00.269Z,100683.72
2023-05-10T11:08:08.476Z,100690.06
2023-05-10T11:11:11.169Z,100691.47
2023-05-10T11:14:13.538Z,100671.06
2023-05-10T11:17:27.731Z,100658.53
2023-05-10T11:20:39.504Z,100671.03
2023-05-10T11:23:44.622Z,100676.88
2023-05-10T11:26:47.341Z,100681.69
2023-05-10T11:29:52.787Z,100663.34
2023-05-10T11:32:55.702Z,100663.28
2023-05-10T11:35:58.260Z,100674.41
2023-05-10T11:39:00.798Z,100639.47
2023-05-10T11:42:03.359Z,100666.44
2023-05-10T11:45:06.849Z,100660.16
2023-05-10T11:48:09.324Z,100656.94
2023-05-10T11:51:12.353Z,100647.97
2023-05-10T11:54:14.900Z,100628.31
2023-05-10T11:57:18.917Z,100626.66
2023-05-10T12:00:22.300Z,100647.63
2023-05-10T12:03:24.822Z,100631.56
2023-05-10T12:06:29.732Z,100657.78
2023-05-10T12:09:43.270Z,100649.78
2023-05-10T12:12:50.888Z,100639.84
2023-05-10T12:15:53.510Z,100640.25
2023-05-10T12:19:01.361Z,100638.94
2023-05-10T12:22:06.496Z,100619.94
2023-05-10T12:25:11.815Z,100623.69
2023-05-10T12:28:14.199Z,100605.28
2023-05-10T12:31:16.666Z,100624.78
2023-05-10T12:34:31.484Z,100619.50
2023-05-10T12:37:36.832Z,100615.22
2023-05-10T12:40:39.255Z,100604.56
2023-05-10T12:43:41.962Z,100613.56
2023-05-10T12:46:44.328Z,100616.56
2023-05-10T12:49:46.885Z,100602.56
2023-05-10T12:52:49.199Z,100614.53
2023-05-10T12:55:51.586Z,100610.28
2023-05-10T12:58:54.021Z,100594.97
2023-05-10T13:01:56.457Z,100601.53
2023-05-10T13:04:58.884Z,100597.97
2023-05-10T13:08:01.497Z,100587.91
2023-05-10T13:11:04.450Z,100597.41
2023-05-10T13:14:06.773Z,100581.34
2023-05-10T13:17:09.434Z,100589.31
2023-05-10T13:20:12.255Z,100595.13
2023-05-10T13:23:14.661Z,100591.31
2023-05-10T13:26:17.104Z,100563.72
2023-05-10T13:29:20.290Z,100579.28
2023-05-10T13:32:22.724Z,100587.69
2023-05-10T13:35:25.169Z,100574.84
2023-05-10T13:38:27.535Z,100580.19
2023-05-10T13:41:29.995Z,100548.78
2023-05-10T13:44:34.405Z,100570.13
2023-05-10T13:47:37.404Z,100554.56
2023-05-10T13:50:39.806Z,100553.06
2023-05-10T13:53:42.450Z,100571.59
2023-05-10T13:56:44.983Z,100568.53
2023-05-10T13:59:47.665Z,100565.44
2023-05-10T14:02:50.060Z,100546.34
2023-05-10T14:05:52.492Z,100540.59
2023-05-10T14:08:54.955Z,100533.59
2023-05-10T14:11:57.523Z,100525.56
2023-05-10T14:14:59.889Z,100536.59
2023-05-10T14:18:02.721Z,100541.78
2023-05-10T14:21:05.181Z,100534.13
2023-05-10T14:24:08.208Z,100522.97
2023-05-10T14:27:10.519Z,100540.56
2023-05-10T14:30:13.249Z,100541.75
2023-05-10T14:33:15.923Z,100515.59
2023-05-10T14:36:18.647Z,100513.25
2023-05-10T14:39:20.974Z,100505.09
2023-05-10T14:42:23.351Z,100535.22
2023-05-10T14:45:25.714Z,100486.34
2023-05-10T14:48:28.106Z,100523.72
2023-05-10T14:51:30.780Z,100486.78
2023-05-10T14:54:34.495Z,100508.84
2023-05-10T14:57:37.141Z,100528.06
2023-05-10T15:00:39.520Z,100506.72
2023-05-10T15:03:42.322Z,100506.91
2023-05-10T15:06:45.320Z,100489.47
2023-05-10T15:09:47.766Z,100504.25
2023-05-10T15:12:51.082Z,100503.09
2023-05-10T15:15:53.724Z,100509.44
2023-05-10T15:18:56.156Z,100495.09
2023-05-10T15:21:58.639Z,100505.50
2023-05-10T15:25:01.138Z,100502.84
2023-05-10T15:28:03.963Z,100493.53
2023-05-10T15:31:06.329Z,100476.97
2023-05-10T15:34:08.683Z,100503.31
2023-05-10T15:37:11.066Z,100500.56
2023-05-10T15:40:13.461Z,100471.59
2023-05-10T15:43:16.267Z,100475.31
2023-05-10T15:46:18.638Z,100492.44
2023-05-10T15:49:21.227Z,100492.81
2023-05-10T15:52:24.405Z,100480.00
2023-05-10T15:55:26.975Z,100494.13
2023-05-10T15:58:29.331Z,100458.06
2023-05-10T16:01:32.909Z,100466.88
2023-05-10T16:04:35.347Z,100469.88
2023-05-10T16:07:37.758Z,100473.78
2023-05-10T16:10:40.139Z,100480.78
2023-05-10T16:13:42.565Z,100485.84
2023-05-10T16:16:45.055Z,100485.22
2023-05-10T16:19:47.557Z,100495.34
2023-05-10T16:22:49.964Z,100484.69
2023-05-10T16:25:52.332Z,100491.28
2023-05-10T16:28:54.771Z,100463.84
2023-05-10T16:31:57.147Z,100483.09
2023-05-10T16:35:00.438Z,100496.13
2023-05-10T16:38:03.062Z,100459.69
2023-05-10T16:41:06.732Z,100455.69
2023-05-10T16:44:09.083Z,100477.34
2023-05-10T16:47:11.383Z,100494.25
2023-05-10T16:50:14.937Z,100484.94
2023-05-10T16:53:17.346Z,100495.25
2023-05-10T16:56:21.795Z,100473.34
2023-05-10T16:59:24.247Z,100494.34
2023-05-10T17:02:26.826Z,100495.81
2023-05-10T17:05:29.518Z,100491.84
2023-05-10T17:08:31.846Z,100485.25
2023-05-10T17:11:34.264Z,100488.44
2023-05-10T17:14:38.200Z,100508.34
2023-05-10T17:17:40.594Z,100511.03
2023-05-10T17:20:44.729Z,100488.19
2023-05-10T17:23:47.082Z,100485.38
2023-05-10T17:26:49.424Z,100502.69
2023-05-10T17:29:56.453Z,100481.03
2023-05-10T17:33:00.153Z,100510.91
2023-05-10T17:36:02.708Z,100508.91
2023-05-10T17:39:05.139Z,100515.56
2023-05-10T17:42:07.597Z,100502.47
2023-05-10T17:45:10.775Z,100514.63
2023-05-10T17:48:13.468Z,100516.66
2023-05-10T17:51:15.833Z,100504.38
2023-05-10T17:54:18.231Z,100498.84
2023-05-10T17:57:20.891Z,100525.41
2023-05-10T18:00:23.348Z,100531.50
2023-05-10T18:03:25.840Z,100510.72
2023-05-10T18:06:28.436Z,100535.75
2023-05-10T18:09:30.968Z,100501.25
2023-05-10T18:12:33.301Z,100535.97
2023-05-10T18:15:35.725Z,100513.88
2023-05-10T18:18:39.396Z,100537.28
2023-05-10T18:21:41.793Z,100507.03
2023-05-10T18:24:44.203Z,100518.78
2023-05-10T18:27:46.533Z,100553.44
2023-05-10T18:30:48.909Z,100547.47
2023-05-10T18:33:51.258Z,100554.72
2023-05-10T18:36:53.845Z,100555.38
2023-05-10T18:39:57.710Z,100561.50
2023-05-10T18:43:00.271Z,100562.34
2023-05-10T18:46:02.670Z,100560.00
2023-05-10T18:49:05.868Z,100562.38
2023-05-10T18:52:08.227Z,100536.72
2023-05-10T18:55:10.727Z,100559.78
2023-05-10T18:58:13.078Z,100540.09
2023-05-10T19:01:16.346Z,100568.41
2023-05-10T19:04:18.817Z,100567.63
2023-05-10T19:07:21.190Z,100550.88
2023-05-10T19:10:23.722Z,100574.19
2023-05-10T19:13:28.331Z,100575.19
2023-05-10T19:16:30.945Z,100554.53
2023-05-10T19:19:33.795Z,100550.25
2023-05-10T19:22:54.042Z,100562.75
2023-05-10T19:25:59.850Z,100579.06
2023-05-10T19:29:02.377Z,100580.22
2023-05-10T19:32:05.197Z,100554.13
2023-05-10T19:35:08.393Z,100584.88
2023-05-10T19:38:11.014Z,100571.38
2023-05-10T19:41:14.771Z,100564.28
2023-05-10T19:44:18.074Z,100577.06
2023-05-10T19:47:21.427Z,100576.31
2023-05-10T19:50:23.824Z,100576.38
2023-05-10T19:53:26.273Z,100572.94
2023-05-10T19:56:29.666Z,100571.88
2023-05-10T19:59:32.032Z,100574.41
2023-05-10T20:02:34.407Z,100525.88
2023-05-10T20:05:37.042Z,100578.38
2023-05-10T20:08:39.399Z,100554.00
2023-05-10T20:11:41.758Z,100570.97
2023-05-10T20:14:44.401Z,100578.13
2023-05-10T20:17:48.093Z,100550.19
2023-05-10T20:20:55.127Z,100546.16
2023-05-10T20:23:58.246Z,100576.56
2023-05-10T20:27:00.910Z,100576.69
2023-05-10T20:30:04.596Z,100568.44
2023-05-10T20:33:07.151Z,100569.34
2023-05-10T20:36:12.275Z,100568.38
2023-05-10T20:39:15.073Z,100551.72
2023-05-10T20:42:17.475Z,100576.88
2023-05-10T20:45:20.471Z,100570.00
2023-05-10T20:48:22.967Z,100555.00
2023-05-10T20:51:25.456Z,100576.03
2023-05-10T20:54:27.893Z,100564.47
2023-05-10T20:57:30.307Z,100548.28
2023-05-10T21:00:32.639Z,100553.63
2023-05-10T21:03:35.191Z,100584.94
2023-05-10T21:06:37.642Z,100569.34
2023-05-10T21:09:39.967Z,100546.34
2023-05-10T21:12:42.335Z,100567.31
2023-05-10T21:15:44.703Z,100551.59
2023-05-10T21:18:47.266Z,100582.13
2023-05-10T21:21:49.599Z,100547.44
2023-05-10T21:24:51.990Z,100574.81
2023-05-10T21:27:54.312Z,100529.97
2023-05-10T21:30:56.834Z,100518.72
2023-05-10T21:33:59.197Z,100576.94
2023-05-10T21:37:01.655Z,100573.44
2023-05-10T21:40:04.883Z,100569.16
2023-05-10T21:43:08.269Z,100566.69
2023-05-10T21:46:10.802Z,100567.91
2023-05-10T21:49:13.247Z,100577.22
2023-05-10T21:52:15.572Z,100579.69
2023-05-10T21:55:18.328Z,100548.34
2023-05-10T21:58:20.860Z,100572.13
2023-05-10T22:01:23.295Z,100554.72
2023-05-10T22:04:25.658Z,100581.69
2023-05-10T22:07:28.144Z,100574.25
2023-05-10T22:10:30.497Z,100564.06
2023-05-10T22:13:32.838Z,100552.28
2023-05-10T22:16:35.684Z,100579.47
2023-05-10T22:19:38.130Z,100575.03
2023-05-10T22:22:40.438Z,100584.47
2023-05-10T22:25:43.034Z,100588.94
2023-05-10T22:28:45.403Z,100592.47
2023-05-10T22:31:47.851Z,100584.66
2023-05-10T22:34:50.224Z,100588.78
2023-05-10T22:37:52.572Z,100590.38
2023-05-10T22:40:54.937Z,100566.84
2023-05-10T22:43:57.274Z,100591.38
2023-05-10T22:46:59.903Z,100561.00
2023-05-10T22:50:05.423Z,100580.16
2023-05-10T22:53:08.081Z,100581.16
2023-05-10T22:56:10.475Z,100578.78
2023-05-10T22:59:12.840Z,100581.47
2023-05-10T23:02:15.475Z,100570.75
2023-05-10T23:05:18.114Z,100588.72
2023-05-10T23:08:20.468Z,100560.13
2023-05-10T23:11:22.897Z,100558.59
2023-05-10T23:14:25.246Z,100577.38
2023-05-10T23:17:27.640Z,100545.31
2023-05-10T23:20:30.068Z,100572.59
2023-05-10T23:23:34.035Z,100573.06
2023-05-10T23:26:36.411Z,100552.22
2023-05-10T23:29:38.773Z,100551.16
2023-05-10T23:32:41.129Z,100562.19
2023-05-10T23:35:43.552Z,100578.25
2023-05-10T23:38:45.990Z,100543.66
2023-05-10T23:41:48.358Z,100551.53
2023-05-10T23:44:52.299Z,100548.66
2023-05-10T23:47:54.721Z,100527.94
2023-05-10T23:50:57.122Z,100585.91
2023-05-10T23:53:59.601Z,100585.22
2023-05-10T23:57:02.087Z,100585.34
